createdAt,value
2018-05-21T00:01:34.735Z,81.00
2018-05-21T00:04:02.421Z,81.20
2018-05-21T00:06:29.868Z,80.90
2018-05-21T00:08:57.315Z,80.80
2018-05-21T00:11:24.906Z,80.50
2018-05-21T00:13:52.340Z,80.80
2018-05-21T00:16:19.776Z,80.40
2018-05-21T00:18:47.576Z,80.90
2018-05-21T00:21:15.060Z,80.60
2018-05-21T00:23:42.529Z,80.70
2018-05-21T00:26:09.960Z,80.70
2018-05-21T00:28:37.387Z,80.60
2018-05-21T00:31:04.833Z,80.80
2018-05-21T00:33:32.291Z,80.60
2018-05-21T00:35:59.808Z,80.40
2018-05-21T00:38:27.250Z,80.40
2018-05-21T00:40:54.687Z,80.20
2018-05-21T00:43:22.603Z,79.70
2018-05-21T00:45:50.042Z,79.40
2018-05-21T00:48:18.383Z,79.50
2018-05-21T00:50:45.820Z,79.60
2018-05-21T00:53:13.263Z,79.20
2018-05-21T00:55:40.819Z,79.50
2018-05-21T00:58:08.254Z,79.10
2018-05-21T01:00:35.711Z,78.70
2018-05-21T01:03:03.160Z,78.70
2018-05-21T01:05:30.608Z,78.50
2018-05-21T01:07:58.068Z,78.60
2018-05-21T01:10:25.503Z,78.50
2018-05-21T01:12:52.981Z,78.50
2018-05-21T01:15:20.412Z,78.30
2018-05-21T01:17:47.853Z,78.10
2018-05-21T01:20:15.286Z,77.60
2018-05-21T01:22:42.833Z,77.10
2018-05-21T01:25:10.352Z,77.00
2018-05-21T01:27:37.776Z,77.10
2018-05-21T01:30:05.485Z,76.70
2018-05-21T01:32:32.942Z,77.00
2018-05-21T01:35:00.376Z,76.40
2018-05-21T01:37:27.835Z,76.10
2018-05-21T01:39:55.276Z,75.60
2018-05-21T01:42:22.716Z,75.90
2018-05-21T01:44:50.171Z,75.90
2018-05-21T01:47:17.680Z,75.90
2018-05-21T01:49:45.179Z,76.10
2018-05-21T01:52:12.613Z,75.90
2018-05-21T01:54:40.071Z,76.10
2018-05-21T01:57:07.539Z,76.30
2018-05-21T01:59:34.972Z,76.80
2018-05-21T02:02:02.438Z,77.00
2018-05-21T02:04:29.894Z,77.10
2018-05-21T02:06:57.332Z,77.30
2018-05-21T02:09:24.777Z,77.40
2018-05-21T02:11:52.230Z,77.20
2018-05-21T02:14:19.796Z,76.90
2018-05-21T02:16:47.456Z,77.00
2018-05-21T02:19:14.892Z,76.30
2018-05-21T02:21:42.356Z,76.20
2018-05-21T02:24:09.975Z,75.90
2018-05-21T02:26:37.419Z,76.10
2018-05-21T02:29:04.875Z,76.20
2018-05-21T02:31:32.339Z,76.00
2018-05-21T02:33:59.788Z,76.80
2018-05-21T02:36:27.229Z,76.10
2018-05-21T02:38:54.685Z,76.20
2018-05-21T02:41:22.208Z,76.20
2018-05-21T02:43:49.646Z,76.30
2018-05-21T02:46:17.103Z,76.20
2018-05-21T02:48:44.541Z,76.20
2018-05-21T02:51:12.065Z,75.90
2018-05-21T02:53:39.522Z,76.20
2018-05-21T02:56:07.305Z,76.10
2018-05-21T02:58:34.761Z,76.30
2018-05-21T03:01:02.192Z,76.20
2018-05-21T03:03:29.653Z,76.00
2018-05-21T03:05:57.081Z,76.10
2018-05-21T03:08:24.521Z,76.50
2018-05-21T03:10:51.953Z,76.40
2018-05-21T03:13:20.147Z,76.70
2018-05-21T03:15:48.367Z,77.00
2018-05-21T03:18:15.804Z,76.90
2018-05-21T03:20:43.247Z,77.20
2018-05-21T03:23:10.717Z,77.30
2018-05-21T03:25:38.171Z,77.40
2018-05-21T03:28:05.626Z,77.70
2018-05-21T03:30:33.078Z,78.00
2018-05-21T03:33:00.938Z,78.00
2018-05-21T03:35:28.468Z,78.20
2018-05-21T03:37:55.898Z,78.50
2018-05-21T03:40:23.357Z,78.70
2018-05-21T03:42:50.788Z,79.00
2018-05-21T03:45:18.223Z,79.10
2018-05-21T03:47:45.672Z,79.10
2018-05-21T03:50:13.111Z,79.30
2018-05-21T03:52:40.590Z,79.40
2018-05-21T03:55:08.044Z,79.50
2018-05-21T03:57:35.502Z,79.80
2018-05-21T04:00:14.706Z,80.00
2018-05-21T04:02:53.944Z,80.20
2018-05-21T04:05:22.164Z,80.50
2018-05-21T04:07:49.608Z,80.20
2018-05-21T04:10:17.064Z,80.60
2018-05-21T04:12:44.504Z,80.80
2018-05-21T04:15:11.939Z,80.80
2018-05-21T04:17:39.394Z,80.80
2018-05-21T04:20:08.076Z,80.90
2018-05-21T04:22:35.540Z,80.80
2018-05-21T04:25:02.981Z,81.00
2018-05-21T04:27:30.423Z,81.10
2018-05-21T04:29:57.916Z,81.20
2018-05-21T04:32:25.353Z,81.20
2018-05-21T04:34:52.812Z,81.30
2018-05-21T04:37:20.720Z,81.60
2018-05-21T04:39:48.167Z,81.70
2018-05-21T04:42:15.662Z,81.90
2018-05-21T04:44:43.107Z,82.00
2018-05-21T04:47:10.562Z,82.00
2018-05-21T04:49:38.048Z,82.30
2018-05-21T04:52:05.573Z,82.30
2018-05-21T04:54:33.032Z,82.50
2018-05-21T04:57:00.468Z,82.60
2018-05-21T04:59:27.927Z,82.80
2018-05-21T05:01:55.368Z,82.90
2018-05-21T05:04:22.807Z,83.10
2018-05-21T05:06:50.263Z,83.20
2018-05-21T05:09:17.734Z,83.40
2018-05-21T05:11:45.222Z,83.40
2018-05-21T05:14:12.671Z,83.60
2018-05-21T05:16:40.115Z,83.90
2018-05-21T05:19:07.564Z,83.70
2018-05-21T05:21:35.000Z,83.70
2018-05-21T05:24:02.451Z,83.80
2018-05-21T05:26:29.891Z,83.90
2018-05-21T05:28:57.415Z,84.00
2018-05-21T05:31:24.958Z,84.10
2018-05-21T05:33:52.404Z,84.00
2018-05-21T05:36:19.861Z,84.00
2018-05-21T05:38:47.307Z,84.20
2018-05-21T05:41:14.821Z,84.00
2018-05-21T05:43:42.281Z,84.00
2018-05-21T05:46:09.716Z,84.10
2018-05-21T05:48:37.168Z,84.10
2018-05-21T05:51:04.976Z,83.70
2018-05-21T05:53:32.414Z,83.30
2018-05-21T05:55:59.920Z,83.30
2018-05-21T05:58:27.363Z,83.30
2018-05-21T06:00:54.810Z,82.90
2018-05-21T06:03:22.275Z,82.80
2018-05-21T06:05:49.707Z,82.40
2018-05-21T06:08:17.200Z,82.40
2018-05-21T06:10:44.640Z,82.60
2018-05-21T06:13:12.132Z,82.40
2018-05-21T06:15:39.592Z,81.90
2018-05-21T06:18:07.072Z,81.80
2018-05-21T06:20:34.529Z,81.60
2018-05-21T06:23:01.976Z,81.60
2018-05-21T06:25:29.441Z,81.90
2018-05-21T06:27:56.883Z,82.10
2018-05-21T06:30:24.319Z,81.80
2018-05-21T06:32:52.220Z,80.90
2018-05-21T06:35:19.664Z,80.80
2018-05-21T06:37:47.227Z,80.80
2018-05-21T06:40:14.679Z,80.80
2018-05-21T06:42:42.120Z,80.90
2018-05-21T06:45:09.583Z,80.60
2018-05-21T06:47:37.444Z,80.30
2018-05-21T06:50:04.881Z,80.80
2018-05-21T06:52:32.359Z,80.80
2018-05-21T06:54:59.815Z,81.00
2018-05-21T06:57:27.263Z,80.10
2018-05-21T06:59:55.131Z,80.80
2018-05-21T07:02:22.593Z,80.10
2018-05-21T07:04:50.132Z,79.40
2018-05-21T07:07:17.587Z,79.20
2018-05-21T07:09:45.031Z,79.60
2018-05-21T07:12:12.470Z,78.90
2018-05-21T07:14:39.899Z,78.80
2018-05-21T07:17:07.356Z,79.40
2018-05-21T07:19:34.802Z,78.70
2018-05-21T07:22:02.247Z,78.90
2018-05-21T07:24:29.820Z,78.30
2018-05-21T07:26:57.607Z,78.40
2018-05-21T07:29:25.072Z,78.70
2018-05-21T07:31:52.505Z,78.50
2018-05-21T07:34:19.956Z,78.40
2018-05-21T07:36:47.392Z,78.10
2018-05-21T07:39:15.217Z,78.40
2018-05-21T07:41:42.720Z,78.30
2018-05-21T07:44:10.152Z,76.60
2018-05-21T07:46:37.632Z,76.60
2018-05-21T07:49:05.068Z,76.60
2018-05-21T07:51:32.607Z,76.80
2018-05-21T07:54:00.009Z,75.70
2018-05-21T07:56:27.443Z,75.90
2018-05-21T07:58:54.904Z,76.50
2018-05-21T08:01:22.346Z,75.90
2018-05-21T08:03:50.231Z,76.40
2018-05-21T08:06:17.687Z,74.10
2018-05-21T08:08:45.138Z,74.80
2018-05-21T08:11:12.604Z,75.00
2018-05-21T08:13:40.093Z,75.10
2018-05-21T08:16:07.934Z,75.30
2018-05-21T08:18:35.403Z,75.40
2018-05-21T08:21:02.847Z,75.20
2018-05-21T08:23:30.303Z,73.70
2018-05-21T08:25:57.751Z,71.70
2018-05-21T08:28:25.186Z,71.90
2018-05-21T08:30:52.635Z,72.90
2018-05-21T08:33:20.095Z,74.80
2018-05-21T08:35:47.554Z,72.30
2018-05-21T08:38:14.992Z,71.50
2018-05-21T08:40:42.444Z,72.50
2018-05-21T08:43:11.340Z,73.20
2018-05-21T08:45:39.140Z,72.20
2018-05-21T08:48:06.620Z,70.20
2018-05-21T08:50:34.066Z,70.30
2018-05-21T08:53:01.499Z,71.50
2018-05-21T08:55:28.989Z,72.80
2018-05-21T08:57:56.419Z,73.30
2018-05-21T09:00:23.904Z,72.00
2018-05-21T09:02:51.311Z,69.50
2018-05-21T09:05:18.753Z,69.60
2018-05-21T09:07:46.280Z,68.00
2018-05-21T09:10:13.716Z,67.80
2018-05-21T09:12:41.162Z,66.50
2018-05-21T09:15:09.375Z,67.40
2018-05-21T09:17:36.834Z,67.40
2018-05-21T09:20:04.299Z,67.50
2018-05-21T09:22:31.885Z,66.50
2018-05-21T09:24:59.331Z,68.20
2018-05-21T09:27:26.772Z,67.90
2018-05-21T09:29:54.218Z,68.90
2018-05-21T09:32:21.680Z,67.20
2018-05-21T09:34:49.111Z,67.00
2018-05-21T09:37:16.726Z,66.90
2018-05-21T09:39:44.936Z,65.20
2018-05-21T09:42:12.392Z,65.10
2018-05-21T09:44:39.839Z,64.00
2018-05-21T09:47:07.282Z,64.00
2018-05-21T09:49:34.743Z,64.30
2018-05-21T09:52:02.271Z,60.20
2018-05-21T09:54:29.724Z,61.80
2018-05-21T09:56:57.183Z,61.50
2018-05-21T09:59:24.615Z,59.20
2018-05-21T10:01:52.165Z,58.60
2018-05-21T10:04:19.603Z,58.80
2018-05-21T10:06:47.048Z,55.30
2018-05-21T10:09:14.868Z,54.30
2018-05-21T10:11:42.321Z,53.20
2018-05-21T10:14:09.785Z,52.20
2018-05-21T10:16:37.228Z,51.70
2018-05-21T10:19:04.720Z,50.10
2018-05-21T10:21:32.185Z,50.60
2018-05-21T10:23:59.625Z,50.00
2018-05-21T10:26:27.084Z,49.50
2018-05-21T10:28:54.566Z,49.00
2018-05-21T10:31:22.101Z,48.10
2018-05-21T10:33:49.530Z,48.30
2018-05-21T10:36:16.967Z,48.80
2018-05-21T10:38:44.424Z,47.30
2018-05-21T10:41:11.867Z,45.00
2018-05-21T10:43:39.332Z,45.80
2018-05-21T10:46:06.819Z,43.70
2018-05-21T10:48:34.244Z,43.80
2018-05-21T10:51:01.703Z,43.70
2018-05-21T10:53:29.166Z,45.70
2018-05-21T10:55:56.671Z,45.60
2018-05-21T10:58:24.124Z,46.50
2018-05-21T11:00:51.566Z,45.70
2018-05-21T11:03:19.008Z,45.00
2018-05-21T11:05:46.513Z,45.00
2018-05-21T11:08:13.943Z,45.30
2018-05-21T11:10:41.385Z,47.00
2018-05-21T11:13:08.832Z,45.00
2018-05-21T11:15:36.276Z,44.60
2018-05-21T11:18:04.204Z,43.40
2018-05-21T11:20:31.643Z,44.00
2018-05-21T11:22:59.131Z,43.00
2018-05-21T11:25:26.588Z,42.10
2018-05-21T11:27:54.115Z,43.50
2018-05-21T11:30:21.569Z,42.50
2018-05-21T11:32:49.047Z,43.30
2018-05-21T11:35:16.486Z,41.50
2018-05-21T11:37:43.950Z,42.80
2018-05-21T11:40:11.379Z,43.90
2018-05-21T11:42:38.836Z,45.70
2018-05-21T11:45:06.283Z,44.50
2018-05-21T11:47:33.811Z,44.10
2018-05-21T11:50:01.275Z,45.50
2018-05-21T11:52:28.715Z,44.30
2018-05-21T11:54:56.179Z,43.20
2018-05-21T11:57:23.987Z,44.90
2018-05-21T11:59:51.419Z,44.90
2018-05-21T12:02:18.876Z,45.70
2018-05-21T12:04:46.317Z,44.30
2018-05-21T12:07:13.771Z,44.00
2018-05-21T12:09:41.992Z,44.30
2018-05-21T12:12:09.428Z,44.10
2018-05-21T12:14:37.662Z,42.80
2018-05-21T12:17:05.103Z,42.70
2018-05-21T12:19:32.786Z,44.50
2018-05-21T12:22:00.236Z,44.00
2018-05-21T12:24:27.713Z,42.60
2018-05-21T12:26:55.175Z,42.10
2018-05-21T12:29:22.644Z,43.50
2018-05-21T12:31:50.091Z,43.30
2018-05-21T12:34:17.536Z,43.60
2018-05-21T12:36:44.980Z,42.70
2018-05-21T12:39:12.429Z,41.50
2018-05-21T12:41:39.892Z,41.20
2018-05-21T12:44:07.335Z,42.20
2018-05-21T12:46:34.868Z,39.00
2018-05-21T12:49:02.308Z,38.60
2018-05-21T12:51:30.193Z,40.60
2018-05-21T12:53:57.728Z,38.50
2018-05-21T12:56:25.193Z,38.50
2018-05-21T12:58:52.635Z,38.20
2018-05-21T13:01:20.133Z,39.60
2018-05-21T13:03:47.599Z,40.40
2018-05-21T13:06:15.040Z,41.70
2018-05-21T13:08:42.493Z,41.60
2018-05-21T13:11:09.932Z,39.80
2018-05-21T13:13:37.382Z,40.10
2018-05-21T13:16:04.835Z,41.40
2018-05-21T13:18:32.268Z,41.30
2018-05-21T13:20:59.767Z,41.10
2018-05-21T13:23:27.217Z,40.80
2018-05-21T13:25:55.059Z,41.90
2018-05-21T13:28:22.512Z,39.90
2018-05-21T13:30:49.948Z,39.60
2018-05-21T13:33:17.405Z,39.20
2018-05-21T13:35:44.855Z,39.50
2018-05-21T13:38:12.376Z,39.30
2018-05-21T13:40:39.826Z,37.90
2018-05-21T13:43:07.342Z,36.90
2018-05-21T13:45:34.704Z,36.70
2018-05-21T13:48:02.945Z,36.70
2018-05-21T13:50:30.514Z,36.60
2018-05-21T13:52:57.963Z,38.70
2018-05-21T13:55:25.406Z,39.50
2018-05-21T13:57:52.852Z,40.20
2018-05-21T14:00:20.309Z,39.90
2018-05-21T14:02:47.832Z,38.60
2018-05-21T14:05:15.289Z,38.10
2018-05-21T14:07:42.731Z,37.40
2018-05-21T14:10:10.187Z,37.40
2018-05-21T14:12:37.749Z,37.20
2018-05-21T14:15:05.078Z,37.10
2018-05-21T14:17:32.667Z,36.10
2018-05-21T14:20:00.116Z,36.20
2018-05-21T14:22:27.667Z,36.90
2018-05-21T14:24:55.120Z,37.50
2018-05-21T14:27:22.862Z,38.00
2018-05-21T14:29:50.356Z,38.10
2018-05-21T14:32:17.759Z,37.70
2018-05-21T14:34:45.194Z,36.00
2018-05-21T14:37:12.647Z,35.90
2018-05-21T14:39:40.108Z,36.50
2018-05-21T14:42:07.556Z,36.90
2018-05-21T14:44:35.071Z,38.50
2018-05-21T14:47:02.524Z,39.20
2018-05-21T14:49:29.976Z,38.20
2018-05-21T14:51:57.413Z,37.40
2018-05-21T14:54:24.871Z,37.60
2018-05-21T14:56:52.315Z,39.00
2018-05-21T14:59:19.760Z,40.60
2018-05-21T15:01:47.227Z,40.30
2018-05-21T15:04:15.651Z,42.20
2018-05-21T15:06:43.335Z,42.20
2018-05-21T15:09:11.660Z,43.30
2018-05-21T15:11:39.884Z,43.40
2018-05-21T15:14:07.465Z,43.40
2018-05-21T15:16:34.904Z,41.60
2018-05-21T15:19:02.417Z,41.60
2018-05-21T15:21:29.938Z,42.10
2018-05-21T15:23:57.374Z,42.90
2018-05-21T15:26:24.832Z,43.10
2018-05-21T15:28:52.272Z,42.80
2018-05-21T15:31:19.780Z,42.80
2018-05-21T15:33:47.219Z,44.30
2018-05-21T15:36:14.946Z,44.70
2018-05-21T15:38:42.314Z,43.90
2018-05-21T15:41:09.958Z,43.00
2018-05-21T15:43:37.858Z,43.00
2018-05-21T15:46:05.287Z,43.10
2018-05-21T15:48:32.769Z,44.50
2018-05-21T15:51:00.188Z,43.90
2018-05-21T15:53:27.639Z,43.50
2018-05-21T15:55:55.091Z,44.00
2018-05-21T15:58:22.530Z,44.30
2018-05-21T16:00:49.979Z,45.10
2018-05-21T16:03:18.331Z,46.00
2018-05-21T16:05:45.774Z,45.90
2018-05-21T16:08:13.229Z,45.40
2018-05-21T16:10:40.656Z,46.60
2018-05-21T16:13:08.862Z,46.60
2018-05-21T16:15:36.490Z,46.50
2018-05-21T16:18:03.948Z,45.30
2018-05-21T16:20:31.409Z,44.40
2018-05-21T16:22:58.856Z,45.00
2018-05-21T16:25:26.308Z,45.30
2018-05-21T16:27:53.767Z,45.80
2018-05-21T16:30:21.210Z,46.70
2018-05-21T16:32:48.659Z,47.60
2018-05-21T16:35:16.138Z,47.40
2018-05-21T16:37:43.591Z,46.50
2018-05-21T16:40:11.041Z,46.70
2018-05-21T16:42:38.557Z,47.30
2018-05-21T16:45:06.031Z,47.80
2018-05-21T16:47:33.471Z,47.50
2018-05-21T16:50:00.911Z,46.40
2018-05-21T16:52:28.364Z,45.90
2018-05-21T16:54:55.815Z,46.70
2018-05-21T16:57:23.276Z,47.20
2018-05-21T16:59:50.736Z,47.20
2018-05-21T17:02:18.181Z,47.10
2018-05-21T17:04:45.628Z,47.20
2018-05-21T17:07:13.097Z,46.50
2018-05-21T17:09:40.549Z,46.50
2018-05-21T17:12:07.988Z,46.90
2018-05-21T17:14:35.555Z,47.30
2018-05-21T17:17:03.013Z,47.20
2018-05-21T17:19:30.456Z,46.80
2018-05-21T17:21:57.930Z,47.30
2018-05-21T17:24:25.376Z,47.30
2018-05-21T17:26:52.932Z,47.60
2018-05-21T17:29:20.388Z,48.00
2018-05-21T17:31:47.821Z,47.50
2018-05-21T17:34:15.263Z,48.30
2018-05-21T17:36:42.723Z,47.30
2018-05-21T17:39:10.270Z,47.20
2018-05-21T17:41:37.731Z,46.00
2018-05-21T17:44:05.180Z,46.90
2018-05-21T17:46:32.623Z,46.80
2018-05-21T17:49:00.073Z,47.30
2018-05-21T17:51:27.898Z,47.50
2018-05-21T17:53:55.746Z,47.80
2018-05-21T17:56:23.205Z,47.80
2018-05-21T17:58:50.653Z,47.70
2018-05-21T18:01:18.211Z,48.50
2018-05-21T18:03:45.680Z,48.80
2018-05-21T18:06:13.088Z,48.70
2018-05-21T18:08:40.533Z,48.60
2018-05-21T18:11:07.983Z,48.50
2018-05-21T18:13:35.523Z,47.90
2018-05-21T18:16:02.966Z,48.10
2018-05-21T18:18:30.409Z,48.70
2018-05-21T18:20:57.853Z,48.80
2018-05-21T18:23:25.304Z,49.20
2018-05-21T18:25:52.739Z,49.40
2018-05-21T18:28:20.211Z,49.80
2018-05-21T18:30:47.682Z,50.30
2018-05-21T18:33:15.111Z,50.30
2018-05-21T18:35:42.656Z,50.10
2018-05-21T18:38:10.032Z,50.20
2018-05-21T18:40:37.544Z,50.30
2018-05-21T18:43:04.995Z,50.50
2018-05-21T18:45:32.748Z,51.00
2018-05-21T18:48:00.188Z,51.30
2018-05-21T18:50:27.649Z,51.50
2018-05-21T18:52:55.089Z,51.70
2018-05-21T18:55:22.528Z,51.60
2018-05-21T18:57:49.992Z,51.80
2018-05-21T19:00:18.028Z,52.10
2018-05-21T19:02:46.253Z,52.60
2018-05-21T19:05:13.853Z,52.60
2018-05-21T19:07:41.271Z,53.00
2018-05-21T19:10:08.707Z,53.30
2018-05-21T19:12:36.156Z,53.90
2018-05-21T19:15:03.645Z,54.40
2018-05-21T19:17:31.072Z,54.90
2018-05-21T19:19:58.528Z,55.10
2018-05-21T19:22:26.089Z,55.70
2018-05-21T19:24:53.527Z,56.00
2018-05-21T19:27:21.420Z,56.50
2018-05-21T19:29:48.836Z,56.70
2018-05-21T19:32:16.423Z,57.10
2018-05-21T19:34:44.008Z,57.50
2018-05-21T19:37:11.452Z,57.90
2018-05-21T19:39:38.890Z,58.20
2018-05-21T19:42:07.083Z,58.60
2018-05-21T19:44:34.605Z,58.70
2018-05-21T19:47:02.053Z,59.00
2018-05-21T19:49:29.504Z,59.30
2018-05-21T19:51:56.950Z,59.60
2018-05-21T19:54:24.380Z,59.90
2018-05-21T19:56:51.844Z,60.20
2018-05-21T19:59:19.304Z,60.30
2018-05-21T20:01:46.772Z,60.40
2018-05-21T20:04:14.330Z,60.90
2018-05-21T20:06:41.775Z,62.30
2018-05-21T20:09:09.224Z,63.10
2018-05-21T20:11:36.717Z,63.50
2018-05-21T20:14:04.159Z,64.10
2018-05-21T20:16:31.595Z,65.40
2018-05-21T20:18:59.052Z,66.30
2018-05-21T20:21:26.524Z,67.00
2018-05-21T20:23:53.967Z,67.10
2018-05-21T20:26:21.540Z,67.20
2018-05-21T20:28:48.979Z,67.60
2018-05-21T20:31:16.801Z,67.90
2018-05-21T20:33:44.275Z,68.00
2018-05-21T20:36:11.709Z,68.10
2018-05-21T20:38:39.164Z,68.30
2018-05-21T20:41:06.612Z,68.80
2018-05-21T20:43:34.040Z,68.90
2018-05-21T20:46:01.545Z,69.20
2018-05-21T20:48:28.998Z,69.30
2018-05-21T20:50:56.457Z,70.20
2018-05-21T20:53:23.939Z,71.90
2018-05-21T20:55:51.399Z,72.40
2018-05-21T20:58:18.857Z,73.10
2018-05-21T21:00:46.308Z,73.60
2018-05-21T21:03:13.770Z,73.90
2018-05-21T21:05:41.225Z,74.00
2018-05-21T21:08:08.656Z,74.00
2018-05-21T21:10:36.197Z,73.90
2018-05-21T21:13:03.608Z,74.00
2018-05-21T21:15:31.068Z,74.60
2018-05-21T21:17:58.623Z,74.80
2018-05-21T21:20:26.060Z,75.80
2018-05-21T21:22:53.516Z,76.10
2018-05-21T21:25:21.006Z,76.40
2018-05-21T21:27:48.798Z,77.10
2018-05-21T21:30:16.664Z,77.90
2018-05-21T21:32:44.211Z,78.90
2018-05-21T21:35:11.595Z,79.40
2018-05-21T21:37:39.034Z,79.40
2018-05-21T21:40:06.490Z,80.10
2018-05-21T21:42:33.953Z,80.40
2018-05-21T21:45:01.417Z,80.60
2018-05-21T21:47:28.891Z,80.60
2018-05-21T21:49:56.338Z,81.10
2018-05-21T21:52:23.791Z,81.50
2018-05-21T21:54:51.241Z,81.80
2018-05-21T21:57:18.760Z,82.40
2018-05-21T21:59:46.607Z,82.70
2018-05-21T22:02:14.111Z,83.10
2018-05-21T22:04:41.584Z,83.10
2018-05-21T22:07:09.050Z,83.20
2018-05-21T22:09:36.544Z,83.20
2018-05-21T22:12:03.986Z,83.50
2018-05-21T22:14:31.796Z,83.80
2018-05-21T22:16:59.291Z,84.00
2018-05-21T22:19:27.514Z,84.80
2018-05-21T22:21:55.018Z,84.60
2018-05-21T22:24:22.471Z,85.00
2018-05-21T22:26:49.935Z,85.40
2018-05-21T22:29:17.412Z,85.60
2018-05-21T22:31:44.874Z,85.90
2018-05-21T22:34:12.334Z,86.20
2018-05-21T22:36:39.787Z,86.50
2018-05-21T22:39:07.632Z,86.60
2018-05-21T22:41:35.104Z,87.10
2018-05-21T22:44:02.581Z,87.20
2018-05-21T22:46:30.040Z,87.50
2018-05-21T22:48:57.492Z,87.90
2018-05-21T22:51:25.033Z,88.20
2018-05-21T22:53:52.483Z,88.40
2018-05-21T22:56:19.947Z,88.60
2018-05-21T22:58:47.382Z,88.90
2018-05-21T23:01:14.904Z,89.30
2018-05-21T23:03:42.678Z,89.50
2018-05-21T23:06:10.957Z,89.80
2018-05-21T23:08:38.427Z,90.00
2018-05-21T23:11:05.881Z,90.10
2018-05-21T23:13:33.350Z,90.30
2018-05-21T23:16:00.797Z,90.40
2018-05-21T23:18:28.247Z,90.60
2018-05-21T23:20:55.700Z,90.80
2018-05-21T23:23:23.144Z,90.90
2018-05-21T23:25:50.655Z,91.00
2018-05-21T23:28:18.118Z,91.10
2018-05-21T23:30:45.598Z,91.10
2018-05-21T23:33:13.035Z,91.20
2018-05-21T23:35:40.564Z,91.20
2018-05-21T23:38:08.000Z,91.40
2018-05-21T23:40:35.436Z,91.40
2018-05-21T23:43:02.896Z,91.40
2018-05-21T23:45:30.336Z,91.40
2018-05-21T23:47:57.774Z,91.40
2018-05-21T23:50:25.354Z,91.40
2018-05-21T23:52:52.798Z,91.40
2018-05-21T23:55:20.252Z,91.50
2018-05-21T23:57:47.688Z,91.60
